sensor_id;sensor_type;location;lat;lon;timestamp;temperature;humidity
68248;SHT30;55064;49.636;12.164;2023-05-07T00:02:02;13.36;77.92
68248;SHT30;55064;49.636;12.164;2023-05-07T00:04:29;13.31;78.46
68248;SHT30;55064;49.636;12.164;2023-05-07T00:07:01;13.23;78.65
68248;SHT30;55064;49.636;12.164;2023-05-07T00:09:27;13.14;79.01
68248;SHT30;55064;49.636;12.164;2023-05-07T00:11:52;13.14;78.76
68248;SHT30;55064;49.636;12.164;2023-05-07T00:14:20;13.11;78.77
68248;SHT30;55064;49.636;12.164;2023-05-07T00:16:46;13.00;79.30
68248;SHT30;55064;49.636;12.164;2023-05-07T00:19:11;13.07;79.30
68248;SHT30;55064;49.636;12.164;2023-05-07T00:21:38;12.97;79.44
68248;SHT30;55064;49.636;12.164;2023-05-07T00:24:05;12.83;79.86
68248;SHT30;55064;49.636;12.164;2023-05-07T00:26:33;12.81;79.94
68248;SHT30;55064;49.636;12.164;2023-05-07T00:29:01;12.79;80.15
68248;SHT30;55064;49.636;12.164;2023-05-07T00:31:27;12.81;80.09
68248;SHT30;55064;49.636;12.164;2023-05-07T00:33:55;12.75;79.95
68248;SHT30;55064;49.636;12.164;2023-05-07T00:36:22;12.71;80.34
68248;SHT30;55064;49.636;12.164;2023-05-07T00:38:51;12.68;80.55
68248;SHT30;55064;49.636;12.164;2023-05-07T00:41:16;12.69;80.37
68248;SHT30;55064;49.636;12.164;2023-05-07T00:43:42;12.61;80.88
68248;SHT30;55064;49.636;12.164;2023-05-07T00:46:08;12.51;80.93
68248;SHT30;55064;49.636;12.164;2023-05-07T00:48:35;12.38;81.74
68248;SHT30;55064;49.636;12.164;2023-05-07T00:51:00;12.38;81.61
68248;SHT30;55064;49.636;12.164;2023-05-07T00:53:27;12.41;81.32
68248;SHT30;55064;49.636;12.164;2023-05-07T00:55:55;12.40;81.43
68248;SHT30;55064;49.636;12.164;2023-05-07T00:58:21;12.40;81.31
68248;SHT30;55064;49.636;12.164;2023-05-07T01:00:47;12.35;81.14
68248;SHT30;55064;49.636;12.164;2023-05-07T01:03:13;12.33;81.58
68248;SHT30;55064;49.636;12.164;2023-05-07T01:05:38;12.33;81.43
68248;SHT30;55064;49.636;12.164;2023-05-07T01:08:04;12.30;81.24
68248;SHT30;55064;49.636;12.164;2023-05-07T01:10:31;12.37;81.48
68248;SHT30;55064;49.636;12.164;2023-05-07T01:12:58;12.37;81.41
68248;SHT30;55064;49.636;12.164;2023-05-07T01:15:27;12.37;81.38
68248;SHT30;55064;49.636;12.164;2023-05-07T01:17:52;12.34;81.47
68248;SHT30;55064;49.636;12.164;2023-05-07T01:20:19;12.31;81.36
68248;SHT30;55064;49.636;12.164;2023-05-07T01:22:46;12.24;81.15
68248;SHT30;55064;49.636;12.164;2023-05-07T01:25:11;12.16;81.42
68248;SHT30;55064;49.636;12.164;2023-05-07T01:27:36;12.14;81.97
68248;SHT30;55064;49.636;12.164;2023-05-07T01:30:06;12.14;81.94
68248;SHT30;55064;49.636;12.164;2023-05-07T01:35:07;11.99;82.33
68248;SHT30;55064;49.636;12.164;2023-05-07T01:37:35;11.91;82.85
68248;SHT30;55064;49.636;12.164;2023-05-07T01:40:03;11.89;82.98
68248;SHT30;55064;49.636;12.164;2023-05-07T01:42:29;11.90;82.84
68248;SHT30;55064;49.636;12.164;2023-05-07T01:45:00;11.86;82.78
68248;SHT30;55064;49.636;12.164;2023-05-07T01:47:26;11.85;83.43
68248;SHT30;55064;49.636;12.164;2023-05-07T01:49:54;11.75;83.66
68248;SHT30;55064;49.636;12.164;2023-05-07T01:52:24;11.72;83.68
68248;SHT30;55064;49.636;12.164;2023-05-07T01:54:52;11.75;83.74
68248;SHT30;55064;49.636;12.164;2023-05-07T01:57:17;11.71;83.73
68248;SHT30;55064;49.636;12.164;2023-05-07T01:59:43;11.71;83.27
68248;SHT30;55064;49.636;12.164;2023-05-07T02:02:10;11.72;83.68
68248;SHT30;55064;49.636;12.164;2023-05-07T02:04:36;11.68;83.54
68248;SHT30;55064;49.636;12.164;2023-05-07T02:07:01;11.62;84.07
68248;SHT30;55064;49.636;12.164;2023-05-07T02:09:28;11.54;84.16
68248;SHT30;55064;49.636;12.164;2023-05-07T02:11:59;11.44;84.32
68248;SHT30;55064;49.636;12.164;2023-05-07T02:14:24;11.41;84.69
68248;SHT30;55064;49.636;12.164;2023-05-07T02:16:53;11.36;84.88
68248;SHT30;55064;49.636;12.164;2023-05-07T02:19:20;11.35;84.73
68248;SHT30;55064;49.636;12.164;2023-05-07T02:21:52;11.30;85.13
68248;SHT30;55064;49.636;12.164;2023-05-07T02:24:18;11.36;84.91
68248;SHT30;55064;49.636;12.164;2023-05-07T02:26:43;11.35;85.28
68248;SHT30;55064;49.636;12.164;2023-05-07T02:29:08;11.30;85.16
68248;SHT30;55064;49.636;12.164;2023-05-07T02:31:34;11.28;85.11
68248;SHT30;55064;49.636;12.164;2023-05-07T02:34:01;11.31;84.52
68248;SHT30;55064;49.636;12.164;2023-05-07T02:36:27;11.25;84.65
68248;SHT30;55064;49.636;12.164;2023-05-07T02:38:52;11.23;85.57
68248;SHT30;55064;49.636;12.164;2023-05-07T02:41:19;11.00;85.74
68248;SHT30;55064;49.636;12.164;2023-05-07T02:43:45;10.95;85.72
68248;SHT30;55064;49.636;12.164;2023-05-07T02:46:11;10.93;86.03
68248;SHT30;55064;49.636;12.164;2023-05-07T02:48:37;10.92;86.28
68248;SHT30;55064;49.636;12.164;2023-05-07T02:51:03;10.92;86.00
68248;SHT30;55064;49.636;12.164;2023-05-07T02:53:29;10.92;86.51
68248;SHT30;55064;49.636;12.164;2023-05-07T02:55:58;10.81;86.54
68248;SHT30;55064;49.636;12.164;2023-05-07T02:58:27;10.76;86.81
68248;SHT30;55064;49.636;12.164;2023-05-07T03:00:53;10.72;86.68
68248;SHT30;55064;49.636;12.164;2023-05-07T03:03:22;10.76;87.20
68248;SHT30;55064;49.636;12.164;2023-05-07T03:05:52;10.65;87.17
68248;SHT30;55064;49.636;12.164;2023-05-07T03:08:20;10.58;87.45
68248;SHT30;55064;49.636;12.164;2023-05-07T03:10:46;10.56;87.39
68248;SHT30;55064;49.636;12.164;2023-05-07T03:13:12;10.53;87.79
68248;SHT30;55064;49.636;12.164;2023-05-07T03:15:37;10.55;87.82
68248;SHT30;55064;49.636;12.164;2023-05-07T03:18:03;10.53;87.73
68248;SHT30;55064;49.636;12.164;2023-05-07T03:20:30;10.52;87.90
68248;SHT30;55064;49.636;12.164;2023-05-07T03:22:55;10.58;87.25
68248;SHT30;55064;49.636;12.164;2023-05-07T03:25:21;10.59;86.91
68248;SHT30;55064;49.636;12.164;2023-05-07T03:27:46;10.61;87.46
68248;SHT30;55064;49.636;12.164;2023-05-07T03:30:14;10.58;87.13
68248;SHT30;55064;49.636;12.164;2023-05-07T03:32:39;10.56;87.46
68248;SHT30;55064;49.636;12.164;2023-05-07T03:35:05;10.53;87.89
68248;SHT30;55064;49.636;12.164;2023-05-07T03:37:32;10.61;87.05
68248;SHT30;55064;49.636;12.164;2023-05-07T03:39:59;10.49;87.50
68248;SHT30;55064;49.636;12.164;2023-05-07T03:42:25;10.49;86.91
68248;SHT30;55064;49.636;12.164;2023-05-07T03:44:58;10.46;87.46
68248;SHT30;55064;49.636;12.164;2023-05-07T03:47:26;10.51;86.68
68248;SHT30;55064;49.636;12.164;2023-05-07T03:49:51;10.49;87.03
68248;SHT30;55064;49.636;12.164;2023-05-07T03:52:18;10.51;86.92
68248;SHT30;55064;49.636;12.164;2023-05-07T03:54:48;10.49;86.78
68248;SHT30;55064;49.636;12.164;2023-05-07T03:57:13;10.46;87.34
68248;SHT30;55064;49.636;12.164;2023-05-07T03:59:38;10.45;87.30
68248;SHT30;55064;49.636;12.164;2023-05-07T04:02:04;10.41;87.94
68248;SHT30;55064;49.636;12.164;2023-05-07T04:04:32;10.44;87.38
68248;SHT30;55064;49.636;12.164;2023-05-07T04:07:00;10.44;88.10
68248;SHT30;55064;49.636;12.164;2023-05-07T04:09:28;10.52;87.55
68248;SHT30;55064;49.636;12.164;2023-05-07T04:11:53;10.52;86.91
68248;SHT30;55064;49.636;12.164;2023-05-07T04:14:19;10.53;87.65
68248;SHT30;55064;49.636;12.164;2023-05-07T04:16:47;10.52;87.53
68248;SHT30;55064;49.636;12.164;2023-05-07T04:19:18;10.59;86.97
68248;SHT30;55064;49.636;12.164;2023-05-07T04:21:45;10.62;86.89
68248;SHT30;55064;49.636;12.164;2023-05-07T04:24:10;10.68;87.34
68248;SHT30;55064;49.636;12.164;2023-05-07T04:26:37;10.73;87.72
68248;SHT30;55064;49.636;12.164;2023-05-07T04:29:04;10.70;87.72
68248;SHT30;55064;49.636;12.164;2023-05-07T04:31:30;10.65;87.22
68248;SHT30;55064;49.636;12.164;2023-05-07T04:34:00;10.62;87.95
68248;SHT30;55064;49.636;12.164;2023-05-07T04:36:27;10.63;87.78
68248;SHT30;55064;49.636;12.164;2023-05-07T04:38:54;10.58;88.37
68248;SHT30;55064;49.636;12.164;2023-05-07T04:41:23;10.32;89.41
68248;SHT30;55064;49.636;12.164;2023-05-07T04:44:05;10.40;89.10
68248;SHT30;55064;49.636;12.164;2023-05-07T04:46:38;10.48;88.85
68248;SHT30;55064;49.636;12.164;2023-05-07T04:52:25;10.69;88.32
68248;SHT30;55064;49.636;12.164;2023-05-07T04:58:13;10.86;88.00
68248;SHT30;55064;49.636;12.164;2023-05-07T05:04:38;11.04;87.05
68248;SHT30;55064;49.636;12.164;2023-05-07T05:10:24;11.18;87.22
68248;SHT30;55064;49.636;12.164;2023-05-07T05:16:13;11.38;86.35
68248;SHT30;55064;49.636;12.164;2023-05-07T05:28:34;11.73;86.14
68248;SHT30;55064;49.636;12.164;2023-05-07T05:37:49;12.14;84.89
68248;SHT30;55064;49.636;12.164;2023-05-07T05:50:20;12.45;83.62
68248;SHT30;55064;49.636;12.164;2023-05-07T05:56:08;12.56;83.69
68248;SHT30;55064;49.636;12.164;2023-05-07T05:58:35;12.65;83.54
68248;SHT30;55064;49.636;12.164;2023-05-07T06:07:56;12.83;82.51
68248;SHT30;55064;49.636;12.164;2023-05-07T06:13:43;12.54;82.04
68248;SHT30;55064;49.636;12.164;2023-05-07T06:16:29;12.40;81.99
68248;SHT30;55064;49.636;12.164;2023-05-07T06:21:57;12.17;82.30
68248;SHT30;55064;49.636;12.164;2023-05-07T06:24:24;12.56;81.71
68248;SHT30;55064;49.636;12.164;2023-05-07T06:26:50;12.41;81.10
68248;SHT30;55064;49.636;12.164;2023-05-07T06:29:16;12.64;81.15
68248;SHT30;55064;49.636;12.164;2023-05-07T06:31:41;12.38;81.50
68248;SHT30;55064;49.636;12.164;2023-05-07T06:34:20;12.54;81.49
68248;SHT30;55064;49.636;12.164;2023-05-07T06:40:10;12.48;80.79
68248;SHT30;55064;49.636;12.164;2023-05-07T06:45:58;12.38;80.99
68248;SHT30;55064;49.636;12.164;2023-05-07T06:51:45;12.90;80.34
68248;SHT30;55064;49.636;12.164;2023-05-07T06:54:11;12.85;80.16
68248;SHT30;55064;49.636;12.164;2023-05-07T06:56:55;12.95;80.43
68248;SHT30;55064;49.636;12.164;2023-05-07T06:59:40;13.21;79.68
68248;SHT30;55064;49.636;12.164;2023-05-07T07:02:19;13.24;79.09
68248;SHT30;55064;49.636;12.164;2023-05-07T07:04:47;12.90;80.19
68248;SHT30;55064;49.636;12.164;2023-05-07T07:07:18;13.10;79.56
68248;SHT30;55064;49.636;12.164;2023-05-07T07:10:14;13.19;79.15
68248;SHT30;55064;49.636;12.164;2023-05-07T07:19:18;12.88;80.00
68248;SHT30;55064;49.636;12.164;2023-05-07T07:25:07;13.43;78.46
68248;SHT30;55064;49.636;12.164;2023-05-07T07:27:35;12.75;79.35
68248;SHT30;55064;49.636;12.164;2023-05-07T07:36:44;13.59;78.48
68248;SHT30;55064;49.636;12.164;2023-05-07T07:39:32;13.50;78.19
68248;SHT30;55064;49.636;12.164;2023-05-07T07:45:21;13.65;77.87
68248;SHT30;55064;49.636;12.164;2023-05-07T07:47:47;13.89;77.71
68248;SHT30;55064;49.636;12.164;2023-05-07T07:50:48;14.12;77.34
68248;SHT30;55064;49.636;12.164;2023-05-07T07:53:15;14.10;77.88
68248;SHT30;55064;49.636;12.164;2023-05-07T07:55:41;14.34;76.51
68248;SHT30;55064;49.636;12.164;2023-05-07T07:58:09;14.02;76.74
68248;SHT30;55064;49.636;12.164;2023-05-07T08:00:48;14.16;76.96
68248;SHT30;55064;49.636;12.164;2023-05-07T08:03:25;14.31;76.30
68248;SHT30;55064;49.636;12.164;2023-05-07T08:05:57;14.56;75.62
68248;SHT30;55064;49.636;12.164;2023-05-07T08:08:25;14.54;75.09
68248;SHT30;55064;49.636;12.164;2023-05-07T08:11:05;14.64;74.72
68248;SHT30;55064;49.636;12.164;2023-05-07T08:13:36;14.89;74.57
68248;SHT30;55064;49.636;12.164;2023-05-07T08:16:21;15.16;73.83
68248;SHT30;55064;49.636;12.164;2023-05-07T08:18:52;15.55;72.16
68248;SHT30;55064;49.636;12.164;2023-05-07T08:21:26;15.67;71.79
68248;SHT30;55064;49.636;12.164;2023-05-07T08:24:05;15.47;72.64
68248;SHT30;55064;49.636;12.164;2023-05-07T08:26:31;15.46;71.83
68248;SHT30;55064;49.636;12.164;2023-05-07T08:28:56;15.61;72.75
68248;SHT30;55064;49.636;12.164;2023-05-07T08:31:30;14.92;72.79
68248;SHT30;55064;49.636;12.164;2023-05-07T08:33:57;14.78;73.77
68248;SHT30;55064;49.636;12.164;2023-05-07T08:36:23;15.14;73.85
68248;SHT30;55064;49.636;12.164;2023-05-07T08:38:50;15.33;73.29
68248;SHT30;55064;49.636;12.164;2023-05-07T08:44:59;15.50;72.40
68248;SHT30;55064;49.636;12.164;2023-05-07T08:47:51;15.69;72.16
68248;SHT30;55064;49.636;12.164;2023-05-07T08:59:53;15.86;71.73
68248;SHT30;55064;49.636;12.164;2023-05-07T09:05:40;16.16;70.72
68248;SHT30;55064;49.636;12.164;2023-05-07T09:08:41;15.98;70.94
68248;SHT30;55064;49.636;12.164;2023-05-07T09:11:12;15.79;71.71
68248;SHT30;55064;49.636;12.164;2023-05-07T09:13:56;16.27;71.13
68248;SHT30;55064;49.636;12.164;2023-05-07T09:16:27;16.16;70.90
68248;SHT30;55064;49.636;12.164;2023-05-07T09:35:16;16.98;69.22
68248;SHT30;55064;49.636;12.164;2023-05-07T09:41:09;17.27;68.78
68248;SHT30;55064;49.636;12.164;2023-05-07T09:43:55;16.79;69.67
68248;SHT30;55064;49.636;12.164;2023-05-07T09:46:31;17.39;69.12
68248;SHT30;55064;49.636;12.164;2023-05-07T09:49:01;16.96;68.76
68248;SHT30;55064;49.636;12.164;2023-05-07T09:51:49;16.99;68.52
68248;SHT30;55064;49.636;12.164;2023-05-07T09:54:23;17.33;67.93
68248;SHT30;55064;49.636;12.164;2023-05-07T10:03:27;17.19;67.26
68248;SHT30;55064;49.636;12.164;2023-05-07T10:12:21;17.47;67.05
68248;SHT30;55064;49.636;12.164;2023-05-07T10:18:08;18.46;65.17
68248;SHT30;55064;49.636;12.164;2023-05-07T10:20:37;18.04;65.41
68248;SHT30;55064;49.636;12.164;2023-05-07T10:26:47;17.47;66.46
68248;SHT30;55064;49.636;12.164;2023-05-07T10:29:39;17.53;66.68
68248;SHT30;55064;49.636;12.164;2023-05-07T10:38:44;18.04;65.99
68248;SHT30;55064;49.636;12.164;2023-05-07T10:44:45;17.57;66.76
68248;SHT30;55064;49.636;12.164;2023-05-07T10:47:12;17.60;66.09
68248;SHT30;55064;49.636;12.164;2023-05-07T11:02:06;18.77;62.58
68248;SHT30;55064;49.636;12.164;2023-05-07T11:07:55;18.90;62.36
68248;SHT30;55064;49.636;12.164;2023-05-07T11:17:11;18.56;64.17
68248;SHT30;55064;49.636;12.164;2023-05-07T11:20:06;19.07;62.47
68248;SHT30;55064;49.636;12.164;2023-05-07T11:22:59;18.59;62.11
68248;SHT30;55064;49.636;12.164;2023-05-07T11:28:46;18.75;62.86
68248;SHT30;55064;49.636;12.164;2023-05-07T11:31:25;18.80;62.41
68248;SHT30;55064;49.636;12.164;2023-05-07T11:36:43;19.46;62.04
68248;SHT30;55064;49.636;12.164;2023-05-07T11:39:32;19.43;59.65
68248;SHT30;55064;49.636;12.164;2023-05-07T11:48:50;20.28;57.77
68248;SHT30;55064;49.636;12.164;2023-05-07T11:54:40;19.69;58.18
68248;SHT30;55064;49.636;12.164;2023-05-07T12:00:54;20.40;55.85
68248;SHT30;55064;49.636;12.164;2023-05-07T12:03:52;20.66;55.52
68248;SHT30;55064;49.636;12.164;2023-05-07T12:06:35;21.10;55.01
68248;SHT30;55064;49.636;12.164;2023-05-07T12:09:01;20.46;56.25
68248;SHT30;55064;49.636;12.164;2023-05-07T12:11:29;20.59;55.24
68248;SHT30;55064;49.636;12.164;2023-05-07T12:14:03;20.76;54.77
68248;SHT30;55064;49.636;12.164;2023-05-07T12:16:43;21.00;54.88
68248;SHT30;55064;49.636;12.164;2023-05-07T12:19:17;20.33;55.85
68248;SHT30;55064;49.636;12.164;2023-05-07T12:21:57;20.19;55.00
68248;SHT30;55064;49.636;12.164;2023-05-07T12:25:16;19.98;54.79
68248;SHT30;55064;49.636;12.164;2023-05-07T12:27:37;20.36;54.88
68248;SHT30;55064;49.636;12.164;2023-05-07T12:30:08;20.26;55.13
68248;SHT30;55064;49.636;12.164;2023-05-07T12:32:35;19.95;55.68
68248;SHT30;55064;49.636;12.164;2023-05-07T12:35:39;20.63;55.13
68248;SHT30;55064;49.636;12.164;2023-05-07T12:38:11;19.91;55.61
68248;SHT30;55064;49.636;12.164;2023-05-07T12:40:45;20.35;55.17
68248;SHT30;55064;49.636;12.164;2023-05-07T12:43:30;20.74;54.91
68248;SHT30;55064;49.636;12.164;2023-05-07T12:49:31;21.20;53.26
68248;SHT30;55064;49.636;12.164;2023-05-07T12:52:07;20.80;53.64
68248;SHT30;55064;49.636;12.164;2023-05-07T12:55:06;20.81;54.22
68248;SHT30;55064;49.636;12.164;2023-05-07T12:57:51;20.98;53.77
68248;SHT30;55064;49.636;12.164;2023-05-07T13:03:37;20.85;53.93
68248;SHT30;55064;49.636;12.164;2023-05-07T13:06:09;20.97;53.73
68248;SHT30;55064;49.636;12.164;2023-05-07T13:08:48;21.14;54.35
68248;SHT30;55064;49.636;12.164;2023-05-07T13:11:14;20.84;53.20
68248;SHT30;55064;49.636;12.164;2023-05-07T13:13:41;20.76;53.96
68248;SHT30;55064;49.636;12.164;2023-05-07T13:16:13;21.02;53.66
68248;SHT30;55064;49.636;12.164;2023-05-07T13:18:59;20.90;53.51
68248;SHT30;55064;49.636;12.164;2023-05-07T13:21:24;20.94;53.95
68248;SHT30;55064;49.636;12.164;2023-05-07T13:24:05;20.93;52.74
68248;SHT30;55064;49.636;12.164;2023-05-07T13:26:33;20.76;53.06
68248;SHT30;55064;49.636;12.164;2023-05-07T13:29:07;20.40;55.16
68248;SHT30;55064;49.636;12.164;2023-05-07T13:31:51;21.12;53.44
68248;SHT30;55064;49.636;12.164;2023-05-07T13:34:17;20.40;53.98
68248;SHT30;55064;49.636;12.164;2023-05-07T13:36:56;20.77;53.04
68248;SHT30;55064;49.636;12.164;2023-05-07T13:39:22;19.74;55.96
68248;SHT30;55064;49.636;12.164;2023-05-07T13:41:48;19.78;55.73
68248;SHT30;55064;49.636;12.164;2023-05-07T13:44:16;20.11;54.08
68248;SHT30;55064;49.636;12.164;2023-05-07T13:47:03;20.07;54.39
68248;SHT30;55064;49.636;12.164;2023-05-07T13:49:41;19.77;54.07
68248;SHT30;55064;49.636;12.164;2023-05-07T13:52:19;19.97;54.94
68248;SHT30;55064;49.636;12.164;2023-05-07T13:58:21;20.67;52.05
68248;SHT30;55064;49.636;12.164;2023-05-07T14:04:25;20.91;53.39
68248;SHT30;55064;49.636;12.164;2023-05-07T14:10:27;20.38;54.85
68248;SHT30;55064;49.636;12.164;2023-05-07T14:13:05;20.52;54.27
68248;SHT30;55064;49.636;12.164;2023-05-07T14:15:37;20.57;54.48
68248;SHT30;55064;49.636;12.164;2023-05-07T14:21:24;20.28;56.03
68248;SHT30;55064;49.636;12.164;2023-05-07T14:23:58;20.08;55.43
68248;SHT30;55064;49.636;12.164;2023-05-07T14:29:46;20.83;55.29
68248;SHT30;55064;49.636;12.164;2023-05-07T14:38:48;20.01;56.48
68248;SHT30;55064;49.636;12.164;2023-05-07T14:41:22;20.62;54.73
68248;SHT30;55064;49.636;12.164;2023-05-07T14:44:11;20.56;54.59
68248;SHT30;55064;49.636;12.164;2023-05-07T14:46:42;20.56;55.16
68248;SHT30;55064;49.636;12.164;2023-05-07T14:49:32;20.04;55.05
68248;SHT30;55064;49.636;12.164;2023-05-07T14:55:28;19.70;55.68
68248;SHT30;55064;49.636;12.164;2023-05-07T14:57:53;19.84;55.82
68248;SHT30;55064;49.636;12.164;2023-05-07T15:00:19;19.67;56.06
68248;SHT30;55064;49.636;12.164;2023-05-07T15:02:44;19.11;56.77
68248;SHT30;55064;49.636;12.164;2023-05-07T15:08:34;20.15;53.86
68248;SHT30;55064;49.636;12.164;2023-05-07T15:11:17;20.02;53.65
68248;SHT30;55064;49.636;12.164;2023-05-07T15:13:55;19.70;52.20
68248;SHT30;55064;49.636;12.164;2023-05-07T15:16:49;19.56;53.95
68248;SHT30;55064;49.636;12.164;2023-05-07T15:19:16;19.23;54.46
68248;SHT30;55064;49.636;12.164;2023-05-07T15:21:44;19.19;54.80
68248;SHT30;55064;49.636;12.164;2023-05-07T15:24:09;19.09;55.11
68248;SHT30;55064;49.636;12.164;2023-05-07T15:26:35;19.11;54.44
68248;SHT30;55064;49.636;12.164;2023-05-07T15:29:07;19.08;55.21
68248;SHT30;55064;49.636;12.164;2023-05-07T15:31:36;18.91;55.65
68248;SHT30;55064;49.636;12.164;2023-05-07T15:34:16;18.92;55.75
68248;SHT30;55064;49.636;12.164;2023-05-07T15:36:43;19.23;55.10
68248;SHT30;55064;49.636;12.164;2023-05-07T15:39:11;18.90;55.35
68248;SHT30;55064;49.636;12.164;2023-05-07T15:41:36;19.18;55.15
68248;SHT30;55064;49.636;12.164;2023-05-07T15:44:02;19.19;55.03
68248;SHT30;55064;49.636;12.164;2023-05-07T15:46:30;19.15;54.57
68248;SHT30;55064;49.636;12.164;2023-05-07T15:48:56;19.33;54.49
68248;SHT30;55064;49.636;12.164;2023-05-07T15:51:22;19.22;55.45
68248;SHT30;55064;49.636;12.164;2023-05-07T15:53:58;19.11;55.71
68248;SHT30;55064;49.636;12.164;2023-05-07T15:56:33;19.16;56.34
68248;SHT30;55064;49.636;12.164;2023-05-07T15:59:01;19.37;56.27
68248;SHT30;55064;49.636;12.164;2023-05-07T16:01:28;18.78;56.91
68248;SHT30;55064;49.636;12.164;2023-05-07T16:03:56;18.91;57.52
68248;SHT30;55064;49.636;12.164;2023-05-07T16:06:22;18.47;56.42
68248;SHT30;55064;49.636;12.164;2023-05-07T16:08:58;18.29;57.66
68248;SHT30;55064;49.636;12.164;2023-05-07T16:14:45;18.65;57.73
68248;SHT30;55064;49.636;12.164;2023-05-07T16:17:11;18.40;56.38
68248;SHT30;55064;49.636;12.164;2023-05-07T16:19:51;18.46;56.87
68248;SHT30;55064;49.636;12.164;2023-05-07T16:22:24;18.12;57.50
68248;SHT30;55064;49.636;12.164;2023-05-07T16:24:52;18.40;57.37
68248;SHT30;55064;49.636;12.164;2023-05-07T16:27:25;18.19;57.58
68248;SHT30;55064;49.636;12.164;2023-05-07T16:29:53;18.12;57.70
68248;SHT30;55064;49.636;12.164;2023-05-07T16:32:20;17.74;57.83
68248;SHT30;55064;49.636;12.164;2023-05-07T16:34:50;17.69;58.05
68248;SHT30;55064;49.636;12.164;2023-05-07T16:37:21;17.37;58.90
68248;SHT30;55064;49.636;12.164;2023-05-07T16:39:49;17.49;58.96
68248;SHT30;55064;49.636;12.164;2023-05-07T16:42:26;17.51;58.42
68248;SHT30;55064;49.636;12.164;2023-05-07T16:44:52;17.36;58.93
68248;SHT30;55064;49.636;12.164;2023-05-07T16:47:37;17.49;58.76
68248;SHT30;55064;49.636;12.164;2023-05-07T16:50:15;17.26;59.47
68248;SHT30;55064;49.636;12.164;2023-05-07T16:53:16;17.43;59.15
68248;SHT30;55064;49.636;12.164;2023-05-07T16:56:04;17.67;58.93
68248;SHT30;55064;49.636;12.164;2023-05-07T16:58:43;17.50;58.82
68248;SHT30;55064;49.636;12.164;2023-05-07T17:01:14;17.61;59.31
68248;SHT30;55064;49.636;12.164;2023-05-07T17:04:14;17.44;58.58
68248;SHT30;55064;49.636;12.164;2023-05-07T17:07:02;17.06;59.29
68248;SHT30;55064;49.636;12.164;2023-05-07T17:09:28;17.04;59.04
68248;SHT30;55064;49.636;12.164;2023-05-07T17:15:51;16.88;59.43
68248;SHT30;55064;49.636;12.164;2023-05-07T17:18:31;16.87;59.99
68248;SHT30;55064;49.636;12.164;2023-05-07T17:20:58;16.65;60.21
68248;SHT30;55064;49.636;12.164;2023-05-07T17:29:39;16.53;61.23
68248;SHT30;55064;49.636;12.164;2023-05-07T17:32:05;16.32;61.75
68248;SHT30;55064;49.636;12.164;2023-05-07T17:34:37;16.17;61.70
68248;SHT30;55064;49.636;12.164;2023-05-07T17:37:10;16.22;61.57
68248;SHT30;55064;49.636;12.164;2023-05-07T17:39:35;16.23;62.05
68248;SHT30;55064;49.636;12.164;2023-05-07T17:42:01;16.10;62.39
68248;SHT30;55064;49.636;12.164;2023-05-07T17:44:29;16.20;63.00
68248;SHT30;55064;49.636;12.164;2023-05-07T17:46:55;16.19;62.62
68248;SHT30;55064;49.636;12.164;2023-05-07T17:49:21;16.30;62.88
68248;SHT30;55064;49.636;12.164;2023-05-07T17:51:47;16.37;62.78
68248;SHT30;55064;49.636;12.164;2023-05-07T17:54:12;16.39;62.52
68248;SHT30;55064;49.636;12.164;2023-05-07T17:56:48;16.06;63.09
68248;SHT30;55064;49.636;12.164;2023-05-07T17:59:14;15.79;64.00
68248;SHT30;55064;49.636;12.164;2023-05-07T18:01:42;15.82;64.24
68248;SHT30;55064;49.636;12.164;2023-05-07T18:04:16;15.78;63.65
68248;SHT30;55064;49.636;12.164;2023-05-07T18:06:46;15.67;64.26
68248;SHT30;55064;49.636;12.164;2023-05-07T18:09:11;15.31;64.70
68248;SHT30;55064;49.636;12.164;2023-05-07T18:11:37;15.33;65.17
68248;SHT30;55064;49.636;12.164;2023-05-07T18:14:02;15.37;65.64
68248;SHT30;55064;49.636;12.164;2023-05-07T18:16:29;15.33;65.46
68248;SHT30;55064;49.636;12.164;2023-05-07T18:18:54;15.31;65.79
68248;SHT30;55064;49.636;12.164;2023-05-07T18:21:26;15.33;65.98
68248;SHT30;55064;49.636;12.164;2023-05-07T18:23:54;15.27;66.00
68248;SHT30;55064;49.636;12.164;2023-05-07T18:26:24;15.14;66.13
68248;SHT30;55064;49.636;12.164;2023-05-07T18:28:50;15.02;66.49
68248;SHT30;55064;49.636;12.164;2023-05-07T18:31:16;15.03;66.85
68248;SHT30;55064;49.636;12.164;2023-05-07T18:33:41;14.84;66.65
68248;SHT30;55064;49.636;12.164;2023-05-07T18:36:07;14.86;66.89
68248;SHT30;55064;49.636;12.164;2023-05-07T18:38:32;14.84;67.01
68248;SHT30;55064;49.636;12.164;2023-05-07T18:41:04;14.76;66.95
68248;SHT30;55064;49.636;12.164;2023-05-07T18:43:33;14.69;67.28
68248;SHT30;55064;49.636;12.164;2023-05-07T18:45:58;14.67;67.78
68248;SHT30;55064;49.636;12.164;2023-05-07T18:48:26;14.54;67.77
68248;SHT30;55064;49.636;12.164;2023-05-07T18:50:51;14.51;68.13
68248;SHT30;55064;49.636;12.164;2023-05-07T18:53:17;14.52;68.18
68248;SHT30;55064;49.636;12.164;2023-05-07T18:55:48;14.44;68.78
68248;SHT30;55064;49.636;12.164;2023-05-07T18:58:17;14.45;68.70
68248;SHT30;55064;49.636;12.164;2023-05-07T19:00:45;14.27;69.30
68248;SHT30;55064;49.636;12.164;2023-05-07T19:03:12;14.23;69.44
68248;SHT30;55064;49.636;12.164;2023-05-07T19:05:43;14.03;70.37
68248;SHT30;55064;49.636;12.164;2023-05-07T19:08:09;14.09;70.33
68248;SHT30;55064;49.636;12.164;2023-05-07T19:10:36;13.98;70.55
68248;SHT30;55064;49.636;12.164;2023-05-07T19:13:01;13.95;70.79
68248;SHT30;55064;49.636;12.164;2023-05-07T19:15:27;13.95;70.84
68248;SHT30;55064;49.636;12.164;2023-05-07T19:17:52;13.89;70.79
68248;SHT30;55064;49.636;12.164;2023-05-07T19:20:19;13.82;71.22
68248;SHT30;55064;49.636;12.164;2023-05-07T19:22:45;13.74;71.04
68248;SHT30;55064;49.636;12.164;2023-05-07T19:25:11;13.81;70.75
68248;SHT30;55064;49.636;12.164;2023-05-07T19:27:37;13.65;71.20
68248;SHT30;55064;49.636;12.164;2023-05-07T19:30:04;13.74;70.75
68248;SHT30;55064;49.636;12.164;2023-05-07T19:32:29;13.72;70.58
68248;SHT30;55064;49.636;12.164;2023-05-07T19:34:55;13.62;70.81
68248;SHT30;55064;49.636;12.164;2023-05-07T19:37:25;13.59;70.80
68248;SHT30;55064;49.636;12.164;2023-05-07T19:39:53;13.55;71.03
68248;SHT30;55064;49.636;12.164;2023-05-07T19:42:22;13.51;70.61
68248;SHT30;55064;49.636;12.164;2023-05-07T19:44:49;13.53;70.76
68248;SHT30;55064;49.636;12.164;2023-05-07T19:47:15;13.50;70.67
68248;SHT30;55064;49.636;12.164;2023-05-07T19:49:50;13.44;70.87